sensor_id;sensor_type;location;lat;lon;timestamp;P1;durP1;ratioP1;P2;durP2;ratioP2
18316;SDS011;9284;52.298;21.164;2022-11-02T04:11:46;131.57;;;38.83;;
18316;SDS011;9284;52.298;21.164;2022-11-02T04:14:32;123.47;;;39.10;;
18316;SDS011;9284;52.298;21.164;2022-11-02T04:17:12;131.50;;;38.67;;
18316;SDS011;9284;52.298;21.164;2022-11-02T04:20:00;129.20;;;38.47;;
18316;SDS011;9284;52.298;21.164;2022-11-02T04:22:29;131.48;;;39.63;;
18316;SDS011;9284;52.298;21.164;2022-11-02T04:25:17;128.00;;;39.95;;
18316;SDS011;9284;52.298;21.164;2022-11-02T04:28:05;126.78;;;40.80;;
18316;SDS011;9284;52.298;21.164;2022-11-02T04:30:56;147.70;;;41.58;;
18316;SDS011;9284;52.298;21.164;2022-11-02T04:33:29;131.60;;;39.10;;
18316;SDS011;9284;52.298;21.164;2022-11-02T04:36:08;134.30;;;38.97;;
18316;SDS011;9284;52.298;21.164;2022-11-02T04:38:38;132.27;;;40.95;;
18316;SDS011;9284;52.298;21.164;2022-11-02T04:41:27;130.30;;;38.80;;
18316;SDS011;9284;52.298;21.164;2022-11-02T04:44:24;133.55;;;40.47;;
18316;SDS011;9284;52.298;21.164;2022-11-02T04:47:17;138.32;;;41.25;;
18316;SDS011;9284;52.298;21.164;2022-11-02T04:49:46;143.35;;;41.65;;
18316;SDS011;9284;52.298;21.164;2022-11-02T04:52:17;140.38;;;42.20;;
18316;SDS011;9284;52.298;21.164;2022-11-02T04:54:48;146.80;;;42.42;;
18316;SDS011;9284;52.298;21.164;2022-11-02T04:57:19;139.07;;;41.00;;
18316;SDS011;9284;52.298;21.164;2022-11-02T04:59:48;150.02;;;43.03;;
18316;SDS011;9284;52.298;21.164;2022-11-02T05:02:18;146.55;;;43.08;;
18316;SDS011;9284;52.298;21.164;2022-11-02T05:04:47;166.40;;;47.13;;
18316;SDS011;9284;52.298;21.164;2022-11-02T05:07:16;161.32;;;48.10;;
18316;SDS011;9284;52.298;21.164;2022-11-02T05:09:45;158.35;;;47.33;;
18316;SDS011;9284;52.298;21.164;2022-11-02T05:12:16;170.70;;;46.97;;
18316;SDS011;9284;52.298;21.164;2022-11-02T05:14:47;154.90;;;47.20;;
18316;SDS011;9284;52.298;21.164;2022-11-02T05:17:15;169.10;;;47.03;;
18316;SDS011;9284;52.298;21.164;2022-11-02T05:19:44;162.50;;;45.15;;
18316;SDS011;9284;52.298;21.164;2022-11-02T05:22:18;167.95;;;46.60;;
18316;SDS011;9284;52.298;21.164;2022-11-02T05:24:56;161.70;;;45.20;;
18316;SDS011;9284;52.298;21.164;2022-11-02T05:28:29;153.30;;;45.63;;
18316;SDS011;9284;52.298;21.164;2022-11-02T05:31:33;168.13;;;46.90;;
18316;SDS011;9284;52.298;21.164;2022-11-02T05:34:02;175.00;;;48.95;;
18316;SDS011;9284;52.298;21.164;2022-11-02T05:36:35;162.18;;;46.88;;
18316;SDS011;9284;52.298;21.164;2022-11-02T05:39:09;168.80;;;48.25;;
18316;SDS011;9284;52.298;21.164;2022-11-02T05:41:38;189.27;;;50.20;;
18316;SDS011;9284;52.298;21.164;2022-11-02T05:44:09;179.63;;;49.42;;
18316;SDS011;9284;52.298;21.164;2022-11-02T05:46:44;184.73;;;48.30;;
18316;SDS011;9284;52.298;21.164;2022-11-02T05:49:13;168.60;;;48.50;;
18316;SDS011;9284;52.298;21.164;2022-11-02T05:51:42;168.25;;;48.85;;
18316;SDS011;9284;52.298;21.164;2022-11-02T05:54:19;189.23;;;49.42;;
18316;SDS011;9284;52.298;21.164;2022-11-02T05:56:58;174.15;;;50.60;;
18316;SDS011;9284;52.298;21.164;2022-11-02T05:59:32;186.48;;;49.58;;
18316;SDS011;9284;52.298;21.164;2022-11-02T06:02:04;182.18;;;49.00;;
18316;SDS011;9284;52.298;21.164;2022-11-02T06:04:42;213.98;;;53.67;;
18316;SDS011;9284;52.298;21.164;2022-11-02T06:07:24;178.15;;;50.58;;
18316;SDS011;9284;52.298;21.164;2022-11-02T06:09:56;190.48;;;50.85;;
18316;SDS011;9284;52.298;21.164;2022-11-02T06:12:24;189.98;;;51.92;;
18316;SDS011;9284;52.298;21.164;2022-11-02T06:14:59;187.75;;;51.40;;
18316;SDS011;9284;52.298;21.164;2022-11-02T06:17:39;180.05;;;49.47;;
18316;SDS011;9284;52.298;21.164;2022-11-02T06:20:09;186.52;;;51.50;;
18316;SDS011;9284;52.298;21.164;2022-11-02T06:22:45;188.65;;;51.85;;
18316;SDS011;9284;52.298;21.164;2022-11-02T06:25:14;178.38;;;51.05;;
18316;SDS011;9284;52.298;21.164;2022-11-02T06:27:48;192.93;;;48.78;;
18316;SDS011;9284;52.298;21.164;2022-11-02T06:30:19;167.10;;;48.28;;
18316;SDS011;9284;52.298;21.164;2022-11-02T06:32:53;187.88;;;49.47;;
18316;SDS011;9284;52.298;21.164;2022-11-02T06:35:29;176.57;;;50.90;;
18316;SDS011;9284;52.298;21.164;2022-11-02T06:38:06;177.25;;;50.28;;
18316;SDS011;9284;52.298;21.164;2022-11-02T06:40:34;165.93;;;47.35;;
18316;SDS011;9284;52.298;21.164;2022-11-02T06:43:05;171.27;;;47.60;;
18316;SDS011;9284;52.298;21.164;2022-11-02T06:45:44;166.35;;;46.83;;
18316;SDS011;9284;52.298;21.164;2022-11-02T06:48:18;157.63;;;45.85;;
18316;SDS011;9284;52.298;21.164;2022-11-02T06:51:06;149.95;;;43.80;;
18316;SDS011;9284;52.298;21.164;2022-11-02T06:53:42;142.63;;;44.60;;
18316;SDS011;9284;52.298;21.164;2022-11-02T06:56:13;147.60;;;43.25;;
18316;SDS011;9284;52.298;21.164;2022-11-02T06:58:55;147.15;;;41.33;;
18316;SDS011;9284;52.298;21.164;2022-11-02T07:01:25;140.25;;;42.55;;
18316;SDS011;9284;52.298;21.164;2022-11-02T07:04:00;132.98;;;42.50;;
18316;SDS011;9284;52.298;21.164;2022-11-02T07:06:30;146.98;;;42.35;;
18316;SDS011;9284;52.298;21.164;2022-11-02T07:09:07;138.57;;;41.75;;
18316;SDS011;9284;52.298;21.164;2022-11-02T07:11:41;121.60;;;39.20;;
18316;SDS011;9284;52.298;21.164;2022-11-02T07:14:14;124.97;;;38.72;;
18316;SDS011;9284;52.298;21.164;2022-11-02T07:17:02;114.75;;;37.10;;
18316;SDS011;9284;52.298;21.164;2022-11-02T07:19:37;102.10;;;33.92;;
18316;SDS011;9284;52.298;21.164;2022-11-02T07:22:10;98.47;;;33.80;;
18316;SDS011;9284;52.298;21.164;2022-11-02T07:24:48;94.60;;;33.03;;
18316;SDS011;9284;52.298;21.164;2022-11-02T07:27:18;97.35;;;34.05;;
18316;SDS011;9284;52.298;21.164;2022-11-02T07:29:52;85.60;;;31.67;;
18316;SDS011;9284;52.298;21.164;2022-11-02T07:32:26;78.57;;;29.13;;
18316;SDS011;9284;52.298;21.164;2022-11-02T07:35:04;67.63;;;26.80;;
18316;SDS011;9284;52.298;21.164;2022-11-02T07:38:08;70.25;;;25.98;;
18316;SDS011;9284;52.298;21.164;2022-11-02T07:40:41;68.88;;;28.25;;
18316;SDS011;9284;52.298;21.164;2022-11-02T07:43:18;67.70;;;27.33;;
18316;SDS011;9284;52.298;21.164;2022-11-02T07:45:57;66.70;;;26.52;;
18316;SDS011;9284;52.298;21.164;2022-11-02T07:48:38;71.88;;;26.92;;
18316;SDS011;9284;52.298;21.164;2022-11-02T07:51:16;67.15;;;25.73;;
18316;SDS011;9284;52.298;21.164;2022-11-02T07:53:50;66.63;;;27.05;;
18316;SDS011;9284;52.298;21.164;2022-11-02T07:56:25;60.05;;;26.60;;
18316;SDS011;9284;52.298;21.164;2022-11-02T07:59:02;60.28;;;25.58;;
18316;SDS011;9284;52.298;21.164;2022-11-02T08:01:38;63.97;;;25.27;;
18316;SDS011;9284;52.298;21.164;2022-11-02T08:04:11;61.92;;;25.70;;
18316;SDS011;9284;52.298;21.164;2022-11-02T08:06:43;53.70;;;25.55;;
18316;SDS011;9284;52.298;21.164;2022-11-02T08:09:12;58.28;;;24.70;;
18316;SDS011;9284;52.298;21.164;2022-11-02T08:11:49;61.30;;;24.15;;
18316;SDS011;9284;52.298;21.164;2022-11-02T08:14:21;58.33;;;24.05;;
18316;SDS011;9284;52.298;21.164;2022-11-02T08:17:18;53.78;;;24.42;;
18316;SDS011;9284;52.298;21.164;2022-11-02T08:19:54;52.55;;;21.73;;
18316;SDS011;9284;52.298;21.164;2022-11-02T08:22:29;52.65;;;22.35;;
18316;SDS011;9284;52.298;21.164;2022-11-02T08:25:02;45.58;;;20.48;;
18316;SDS011;9284;52.298;21.164;2022-11-02T08:27:33;44.88;;;20.52;;
18316;SDS011;9284;52.298;21.164;2022-11-02T08:30:16;46.70;;;22.48;;
18316;SDS011;9284;52.298;21.164;2022-11-02T08:33:27;42.08;;;21.23;;
18316;SDS011;9284;52.298;21.164;2022-11-02T08:35:53;45.15;;;20.10;;
18316;SDS011;9284;52.298;21.164;2022-11-02T08:41:50;38.00;;;18.17;;
18316;SDS011;9284;52.298;21.164;2022-11-02T08:44:31;43.85;;;19.15;;
18316;SDS011;9284;52.298;21.164;2022-11-02T08:47:08;37.05;;;17.48;;
18316;SDS011;9284;52.298;21.164;2022-11-02T08:49:51;39.97;;;18.80;;
18316;SDS011;9284;52.298;21.164;2022-11-02T08:52:27;36.80;;;17.50;;
18316;SDS011;9284;52.298;21.164;2022-11-02T08:55:06;37.75;;;17.65;;
18316;SDS011;9284;52.298;21.164;2022-11-02T08:57:54;42.65;;;17.83;;
18316;SDS011;9284;52.298;21.164;2022-11-02T09:00:36;38.65;;;17.05;;
18316;SDS011;9284;52.298;21.164;2022-11-02T09:03:11;34.97;;;16.95;;
18316;SDS011;9284;52.298;21.164;2022-11-02T09:06:12;37.67;;;17.02;;
18316;SDS011;9284;52.298;21.164;2022-11-02T09:08:50;33.15;;;16.40;;
18316;SDS011;9284;52.298;21.164;2022-11-02T09:11:27;31.88;;;14.85;;
18316;SDS011;9284;52.298;21.164;2022-11-02T09:14:17;33.70;;;16.25;;
18316;SDS011;9284;52.298;21.164;2022-11-02T09:16:49;35.13;;;15.98;;
18316;SDS011;9284;52.298;21.164;2022-11-02T09:19:19;34.95;;;15.80;;
18316;SDS011;9284;52.298;21.164;2022-11-02T09:21:51;28.42;;;15.27;;
18316;SDS011;9284;52.298;21.164;2022-11-02T09:24:19;33.03;;;15.40;;
18316;SDS011;9284;52.298;21.164;2022-11-02T09:26:50;36.08;;;16.13;;
18316;SDS011;9284;52.298;21.164;2022-11-02T09:29:24;29.95;;;14.90;;
18316;SDS011;9284;52.298;21.164;2022-11-02T09:32:12;29.30;;;14.98;;
18316;SDS011;9284;52.298;21.164;2022-11-02T09:34:48;29.77;;;14.85;;
18316;SDS011;9284;52.298;21.164;2022-11-02T09:37:17;33.47;;;16.10;;
18316;SDS011;9284;52.298;21.164;2022-11-02T09:39:57;33.08;;;15.50;;
18316;SDS011;9284;52.298;21.164;2022-11-02T09:42:29;32.60;;;16.33;;
18316;SDS011;9284;52.298;21.164;2022-11-02T09:45:07;28.20;;;15.35;;
18316;SDS011;9284;52.298;21.164;2022-11-02T09:47:45;35.20;;;16.30;;
18316;SDS011;9284;52.298;21.164;2022-11-02T09:50:44;31.38;;;15.48;;
18316;SDS011;9284;52.298;21.164;2022-11-02T09:53:22;32.40;;;16.15;;
18316;SDS011;9284;52.298;21.164;2022-11-02T09:56:02;41.42;;;17.08;;
18316;SDS011;9284;52.298;21.164;2022-11-02T09:58:37;32.17;;;16.45;;
18316;SDS011;9284;52.298;21.164;2022-11-02T10:01:12;37.75;;;16.73;;
18316;SDS011;9284;52.298;21.164;2022-11-02T10:04:05;33.85;;;15.50;;
18316;SDS011;9284;52.298;21.164;2022-11-02T10:06:57;35.45;;;16.88;;
18316;SDS011;9284;52.298;21.164;2022-11-02T10:09:44;35.40;;;17.58;;
18316;SDS011;9284;52.298;21.164;2022-11-02T10:12:27;31.67;;;16.30;;
18316;SDS011;9284;52.298;21.164;2022-11-02T10:15:19;31.58;;;17.75;;
18316;SDS011;9284;52.298;21.164;2022-11-02T10:20:43;34.03;;;18.20;;
18316;SDS011;9284;52.298;21.164;2022-11-02T10:23:17;33.72;;;17.95;;
18316;SDS011;9284;52.298;21.164;2022-11-02T10:25:51;30.35;;;17.52;;
18316;SDS011;9284;52.298;21.164;2022-11-02T10:28:27;32.28;;;17.30;;
18316;SDS011;9284;52.298;21.164;2022-11-02T10:31:01;32.67;;;18.15;;
18316;SDS011;9284;52.298;21.164;2022-11-02T10:33:53;33.65;;;17.02;;
18316;SDS011;9284;52.298;21.164;2022-11-02T10:36:32;34.67;;;17.08;;
18316;SDS011;9284;52.298;21.164;2022-11-02T10:39:16;33.20;;;19.02;;
18316;SDS011;9284;52.298;21.164;2022-11-02T10:41:55;30.20;;;17.50;;
18316;SDS011;9284;52.298;21.164;2022-11-02T10:44:47;33.35;;;17.85;;
18316;SDS011;9284;52.298;21.164;2022-11-02T10:48:16;28.27;;;17.08;;
18316;SDS011;9284;52.298;21.164;2022-11-02T10:50:58;33.08;;;17.25;;
18316;SDS011;9284;52.298;21.164;2022-11-02T10:53:34;36.05;;;17.75;;
18316;SDS011;9284;52.298;21.164;2022-11-02T10:56:13;30.67;;;16.55;;
18316;SDS011;9284;52.298;21.164;2022-11-02T10:59:02;36.72;;;16.95;;
18316;SDS011;9284;52.298;21.164;2022-11-02T11:01:43;35.95;;;17.50;;
18316;SDS011;9284;52.298;21.164;2022-11-02T11:04:20;32.60;;;17.17;;
18316;SDS011;9284;52.298;21.164;2022-11-02T11:06:54;32.95;;;17.48;;
18316;SDS011;9284;52.298;21.164;2022-11-02T11:09:32;34.55;;;17.30;;
18316;SDS011;9284;52.298;21.164;2022-11-02T11:12:12;37.45;;;16.83;;
18316;SDS011;9284;52.298;21.164;2022-11-02T11:14:47;31.48;;;16.50;;
18316;SDS011;9284;52.298;21.164;2022-11-02T11:18:01;31.05;;;15.60;;
18316;SDS011;9284;52.298;21.164;2022-11-02T11:20:59;33.28;;;15.00;;
18316;SDS011;9284;52.298;21.164;2022-11-02T11:23:29;31.90;;;14.57;;
18316;SDS011;9284;52.298;21.164;2022-11-02T11:25:59;32.90;;;16.50;;
18316;SDS011;9284;52.298;21.164;2022-11-02T11:28:29;34.13;;;15.10;;
18316;SDS011;9284;52.298;21.164;2022-11-02T11:31:06;34.80;;;15.40;;
18316;SDS011;9284;52.298;21.164;2022-11-02T11:33:44;28.00;;;15.32;;
18316;SDS011;9284;52.298;21.164;2022-11-02T11:36:24;25.10;;;14.63;;
18316;SDS011;9284;52.298;21.164;2022-11-02T11:39:04;25.02;;;14.30;;
18316;SDS011;9284;52.298;21.164;2022-11-02T11:41:48;31.55;;;15.40;;
18316;SDS011;9284;52.298;21.164;2022-11-02T11:44:20;32.85;;;16.40;;
18316;SDS011;9284;52.298;21.164;2022-11-02T11:46:52;32.65;;;16.10;;
18316;SDS011;9284;52.298;21.164;2022-11-02T11:49:28;30.83;;;14.95;;
18316;SDS011;9284;52.298;21.164;2022-11-02T11:52:37;29.58;;;15.02;;
18316;SDS011;9284;52.298;21.164;2022-11-02T11:55:21;24.17;;;14.48;;
18316;SDS011;9284;52.298;21.164;2022-11-02T11:58:03;25.88;;;14.30;;
18316;SDS011;9284;52.298;21.164;2022-11-02T12:00:33;29.33;;;13.60;;
18316;SDS011;9284;52.298;21.164;2022-11-02T12:03:01;26.83;;;13.45;;
18316;SDS011;9284;52.298;21.164;2022-11-02T12:05:37;25.15;;;11.95;;
18316;SDS011;9284;52.298;21.164;2022-11-02T12:08:40;19.10;;;11.20;;
18316;SDS011;9284;52.298;21.164;2022-11-02T12:11:24;24.02;;;11.95;;
18316;SDS011;9284;52.298;21.164;2022-11-02T12:14:15;20.20;;;11.25;;
18316;SDS011;9284;52.298;21.164;2022-11-02T12:17:27;19.35;;;11.13;;
18316;SDS011;9284;52.298;21.164;2022-11-02T12:20:12;22.33;;;11.55;;
18316;SDS011;9284;52.298;21.164;2022-11-02T12:23:01;19.42;;;11.07;;
18316;SDS011;9284;52.298;21.164;2022-11-02T12:25:40;19.38;;;11.80;;
18316;SDS011;9284;52.298;21.164;2022-11-02T12:28:21;22.45;;;11.07;;
18316;SDS011;9284;52.298;21.164;2022-11-02T12:31:34;18.77;;;10.05;;
18316;SDS011;9284;52.298;21.164;2022-11-02T12:34:21;20.13;;;10.88;;
18316;SDS011;9284;52.298;21.164;2022-11-02T12:37:07;21.80;;;11.57;;
18316;SDS011;9284;52.298;21.164;2022-11-02T12:40:06;19.95;;;10.98;;
18316;SDS011;9284;52.298;21.164;2022-11-02T12:42:45;21.27;;;11.55;;
18316;SDS011;9284;52.298;21.164;2022-11-02T12:45:24;23.27;;;12.40;;
18316;SDS011;9284;52.298;21.164;2022-11-02T12:48:03;23.05;;;11.52;;
18316;SDS011;9284;52.298;21.164;2022-11-02T12:50:46;20.08;;;10.25;;
18316;SDS011;9284;52.298;21.164;2022-11-02T12:53:33;17.70;;;9.70;;
18316;SDS011;9284;52.298;21.164;2022-11-02T12:56:11;16.20;;;10.07;;
18316;SDS011;9284;52.298;21.164;2022-11-02T12:58:45;23.52;;;10.63;;
18316;SDS011;9284;52.298;21.164;2022-11-02T13:01:27;18.70;;;10.23;;
18316;SDS011;9284;52.298;21.164;2022-11-02T13:04:03;15.75;;;9.40;;
18316;SDS011;9284;52.298;21.164;2022-11-02T13:06:42;19.55;;;10.13;;
18316;SDS011;9284;52.298;21.164;2022-11-02T13:09:20;25.98;;;10.45;;
18316;SDS011;9284;52.298;21.164;2022-11-02T13:11:58;18.17;;;10.27;;
18316;SDS011;9284;52.298;21.164;2022-11-02T13:14:32;18.38;;;10.10;;
18316;SDS011;9284;52.298;21.164;2022-11-02T13:17:14;19.15;;;9.60;;
18316;SDS011;9284;52.298;21.164;2022-11-02T13:19:52;22.05;;;9.93;;
18316;SDS011;9284;52.298;21.164;2022-11-02T13:22:27;17.17;;;9.88;;
18316;SDS011;9284;52.298;21.164;2022-11-02T13:25:14;19.85;;;10.38;;
18316;SDS011;9284;52.298;21.164;2022-11-02T13:27:47;18.30;;;10.10;;
18316;SDS011;9284;52.298;21.164;2022-11-02T13:30:25;20.20;;;10.60;;
18316;SDS011;9284;52.298;21.164;2022-11-02T13:32:57;18.02;;;9.70;;
18316;SDS011;9284;52.298;21.164;2022-11-02T13:35:32;16.95;;;9.82;;
18316;SDS011;9284;52.298;21.164;2022-11-02T13:38:05;18.73;;;10.07;;
18316;SDS011;9284;52.298;21.164;2022-11-02T13:40:53;15.98;;;10.10;;
18316;SDS011;9284;52.298;21.164;2022-11-02T13:43:38;19.63;;;9.75;;
18316;SDS011;9284;52.298;21.164;2022-11-02T13:46:30;19.42;;;10.30;;
18316;SDS011;9284;52.298;21.164;2022-11-02T13:49:18;20.10;;;10.85;;
18316;SDS011;9284;52.298;21.164;2022-11-02T13:51:56;19.77;;;11.15;;
18316;SDS011;9284;52.298;21.164;2022-11-02T13:54:43;19.75;;;11.45;;
18316;SDS011;9284;52.298;21.164;2022-11-02T13:57:26;24.15;;;11.55;;
18316;SDS011;9284;52.298;21.164;2022-11-02T14:00:06;24.33;;;12.38;;
18316;SDS011;9284;52.298;21.164;2022-11-02T14:02:56;23.52;;;12.40;;
18316;SDS011;9284;52.298;21.164;2022-11-02T14:05:45;23.58;;;13.40;;
18316;SDS011;9284;52.298;21.164;2022-11-02T14:08:21;27.60;;;14.38;;
18316;SDS011;9284;52.298;21.164;2022-11-02T14:11:24;28.95;;;14.85;;
18316;SDS011;9284;52.298;21.164;2022-11-02T14:14:19;24.05;;;14.00;;
18316;SDS011;9284;52.298;21.164;2022-11-02T14:16:58;21.48;;;12.60;;
18316;SDS011;9284;52.298;21.164;2022-11-02T14:19:50;23.48;;;11.93;;
18316;SDS011;9284;52.298;21.164;2022-11-02T14:22:25;21.55;;;11.38;;
18316;SDS011;9284;52.298;21.164;2022-11-02T14:27:54;24.30;;;12.00;;
18316;SDS011;9284;52.298;21.164;2022-11-02T14:30:46;25.02;;;12.18;;
18316;SDS011;9284;52.298;21.164;2022-11-02T14:36:18;25.75;;;13.18;;
18316;SDS011;9284;52.298;21.164;2022-11-02T14:39:14;28.92;;;14.45;;
18316;SDS011;9284;52.298;21.164;2022-11-02T14:42:00;27.88;;;13.73;;
18316;SDS011;9284;52.298;21.164;2022-11-02T14:47:41;26.45;;;14.18;;
18316;SDS011;9284;52.298;21.164;2022-11-02T14:50:13;30.95;;;16.33;;
18316;SDS011;9284;52.298;21.164;2022-11-02T14:52:55;26.42;;;15.55;;
18316;SDS011;9284;52.298;21.164;2022-11-02T14:55:30;32.28;;;15.88;;
18316;SDS011;9284;52.298;21.164;2022-11-02T14:58:01;29.98;;;14.52;;
18316;SDS011;9284;52.298;21.164;2022-11-02T15:03:33;26.75;;;13.68;;
18316;SDS011;9284;52.298;21.164;2022-11-02T15:06:05;25.45;;;14.93;;
18316;SDS011;9284;52.298;21.164;2022-11-02T15:08:48;27.15;;;14.07;;
18316;SDS011;9284;52.298;21.164;2022-11-02T15:14:30;29.23;;;15.60;;
18316;SDS011;9284;52.298;21.164;2022-11-02T15:20:24;30.05;;;15.57;;
18316;SDS011;9284;52.298;21.164;2022-11-02T15:23:11;31.30;;;15.63;;
18316;SDS011;9284;52.298;21.164;2022-11-02T15:25:55;29.10;;;15.10;;
18316;SDS011;9284;52.298;21.164;2022-11-02T15:28:33;32.65;;;16.58;;
18316;SDS011;9284;52.298;21.164;2022-11-02T15:31:04;31.33;;;16.52;;
18316;SDS011;9284;52.298;21.164;2022-11-02T15:33:43;33.80;;;16.30;;
18316;SDS011;9284;52.298;21.164;2022-11-02T15:36:25;31.50;;;16.45;;
18316;SDS011;9284;52.298;21.164;2022-11-02T15:39:03;33.08;;;17.20;;
18316;SDS011;9284;52.298;21.164;2022-11-02T15:41:36;31.55;;;15.85;;
18316;SDS011;9284;52.298;21.164;2022-11-02T15:44:26;29.90;;;15.90;;
18316;SDS011;9284;52.298;21.164;2022-11-02T15:47:45;31.75;;;15.38;;
18316;SDS011;9284;52.298;21.164;2022-11-02T15:50:26;28.25;;;15.43;;
18316;SDS011;9284;52.298;21.164;2022-11-02T15:53:10;28.55;;;15.05;;
18316;SDS011;9284;52.298;21.164;2022-11-02T15:55:58;25.10;;;14.77;;
18316;SDS011;9284;52.298;21.164;2022-11-02T15:58:52;30.90;;;14.90;;
18316;SDS011;9284;52.298;21.164;2022-11-02T16:01:38;28.52;;;16.10;;
18316;SDS011;9284;52.298;21.164;2022-11-02T16:04:15;32.42;;;15.02;;
18316;SDS011;9284;52.298;21.164;2022-11-02T16:06:55;33.83;;;16.40;;
18316;SDS011;9284;52.298;21.164;2022-11-02T16:09:29;33.05;;;16.98;;
18316;SDS011;9284;52.298;21.164;2022-11-02T16:12:02;35.35;;;17.67;;
18316;SDS011;9284;52.298;21.164;2022-11-02T16:14:41;38.90;;;18.33;;
18316;SDS011;9284;52.298;21.164;2022-11-02T16:17:22;36.65;;;18.85;;
18316;SDS011;9284;52.298;21.164;2022-11-02T16:20:07;35.67;;;17.52;;
18316;SDS011;9284;52.298;21.164;2022-11-02T16:22:44;33.72;;;18.08;;
18316;SDS011;9284;52.298;21.164;2022-11-02T16:25:28;38.58;;;18.95;;
18316;SDS011;9284;52.298;21.164;2022-11-02T16:28:10;42.17;;;18.77;;
18316;SDS011;9284;52.298;21.164;2022-11-02T16:31:00;36.20;;;18.92;;
18316;SDS011;9284;52.298;21.164;2022-11-02T16:33:48;37.45;;;19.15;;
18316;SDS011;9284;52.298;21.164;2022-11-02T16:36:26;41.65;;;18.25;;
18316;SDS011;9284;52.298;21.164;2022-11-02T16:38:59;38.72;;;18.45;;
18316;SDS011;9284;52.298;21.164;2022-11-02T16:41:30;32.53;;;17.83;;
18316;SDS011;9284;52.298;21.164;2022-11-02T16:44:06;33.60;;;17.38;;
18316;SDS011;9284;52.298;21.164;2022-11-02T16:46:41;33.55;;;17.52;;
18316;SDS011;9284;52.298;21.164;2022-11-02T16:49:55;38.08;;;17.42;;
18316;SDS011;9284;52.298;21.164;2022-11-02T16:52:36;35.17;;;17.02;;
18316;SDS011;9284;52.298;21.164;2022-11-02T16:58:13;41.88;;;18.02;;
18316;SDS011;9284;52.298;21.164;2022-11-02T17:00:54;32.15;;;16.48;;
18316;SDS011;9284;52.298;21.164;2022-11-02T17:03:29;37.97;;;17.27;;
18316;SDS011;9284;52.298;21.164;2022-11-02T17:06:11;38.65;;;17.98;;
18316;SDS011;9284;52.298;21.164;2022-11-02T17:08:51;39.65;;;17.75;;
18316;SDS011;9284;52.298;21.164;2022-11-02T17:11:22;37.05;;;18.70;;
18316;SDS011;9284;52.298;21.164;2022-11-02T17:13:54;36.55;;;19.27;;
18316;SDS011;9284;52.298;21.164;2022-11-02T17:16:37;46.67;;;20.27;;
18316;SDS011;9284;52.298;21.164;2022-11-02T17:19:42;45.42;;;20.13;;
18316;SDS011;9284;52.298;21.164;2022-11-02T17:22:21;39.20;;;19.38;;
18316;SDS011;9284;52.298;21.164;2022-11-02T17:25:11;41.78;;;19.77;;
18316;SDS011;9284;52.298;21.164;2022-11-02T17:27:45;55.40;;;22.60;;
18316;SDS011;9284;52.298;21.164;2022-11-02T17:33:14;52.13;;;22.10;;
18316;SDS011;9284;52.298;21.164;2022-11-02T17:35:52;51.17;;;23.15;;
18316;SDS011;9284;52.298;21.164;2022-11-02T17:38:26;49.50;;;23.20;;
18316;SDS011;9284;52.298;21.164;2022-11-02T17:41:36;54.70;;;22.63;;
18316;SDS011;9284;52.298;21.164;2022-11-02T17:44:22;52.35;;;23.25;;
18316;SDS011;9284;52.298;21.164;2022-11-02T17:46:57;50.22;;;22.90;;
18316;SDS011;9284;52.298;21.164;2022-11-02T17:49:47;51.30;;;23.02;;
18316;SDS011;9284;52.298;21.164;2022-11-02T17:52:24;52.40;;;23.67;;
18316;SDS011;9284;52.298;21.164;2022-11-02T17:55:18;55.35;;;23.15;;
18316;SDS011;9284;52.298;21.164;2022-11-02T17:58:33;46.17;;;22.58;;
18316;SDS011;9284;52.298;21.164;2022-11-02T18:01:09;54.97;;;23.85;;
18316;SDS011;9284;52.298;21.164;2022-11-02T18:04:00;58.38;;;24.55;;
18316;SDS011;9284;52.298;21.164;2022-11-02T18:06:43;54.63;;;25.17;;
18316;SDS011;9284;52.298;21.164;2022-11-02T18:09:25;52.28;;;24.88;;
18316;SDS011;9284;52.298;21.164;2022-11-02T18:12:08;60.25;;;25.30;;
18316;SDS011;9284;52.298;21.164;2022-11-02T18:14:41;57.75;;;22.92;;
18316;SDS011;9284;52.298;21.164;2022-11-02T18:17:12;50.08;;;24.58;;
18316;SDS011;9284;52.298;21.164;2022-11-02T18:19:41;57.10;;;23.88;;
18316;SDS011;9284;52.298;21.164;2022-11-02T18:22:12;50.22;;;23.80;;
18316;SDS011;9284;52.298;21.164;2022-11-02T18:24:46;46.95;;;21.50;;
18316;SDS011;9284;52.298;21.164;2022-11-02T18:27:20;52.53;;;22.00;;
18316;SDS011;9284;52.298;21.164;2022-11-02T18:29:58;60.03;;;22.67;;
18316;SDS011;9284;52.298;21.164;2022-11-02T18:32:31;46.75;;;21.88;;
18316;SDS011;9284;52.298;21.164;2022-11-02T18:35:02;45.50;;;20.40;;
18316;SDS011;9284;52.298;21.164;2022-11-02T18:37:31;42.00;;;20.05;;
18316;SDS011;9284;52.298;21.164;2022-11-02T18:40:28;46.30;;;20.17;;
18316;SDS011;9284;52.298;21.164;2022-11-02T18:43:03;49.63;;;20.67;;
18316;SDS011;9284;52.298;21.164;2022-11-02T18:45:32;56.40;;;21.85;;
18316;SDS011;9284;52.298;21.164;2022-11-02T18:48:01;49.95;;;20.27;;
18316;SDS011;9284;52.298;21.164;2022-11-02T18:50:30;50.45;;;20.50;;
18316;SDS011;9284;52.298;21.164;2022-11-02T18:53:13;47.60;;;20.02;;
18316;SDS011;9284;52.298;21.164;2022-11-02T18:55:48;36.63;;;15.90;;
18316;SDS011;9284;52.298;21.164;2022-11-02T18:58:29;32.30;;;13.10;;
18316;SDS011;9284;52.298;21.164;2022-11-02T19:01:48;34.78;;;13.15;;
18316;SDS011;9284;52.298;21.164;2022-11-02T19:04:35;31.75;;;12.55;;
18316;SDS011;9284;52.298;21.164;2022-11-02T19:07:34;28.30;;;11.45;;
18316;SDS011;9284;52.298;21.164;2022-11-02T19:10:52;21.27;;;10.10;;
18316;SDS011;9284;52.298;21.164;2022-11-02T19:13:29;25.27;;;8.20;;
18316;SDS011;9284;52.298;21.164;2022-11-02T19:16:02;24.13;;;8.65;;
18316;SDS011;9284;52.298;21.164;2022-11-02T19:18:55;22.83;;;8.70;;
18316;SDS011;9284;52.298;21.164;2022-11-02T19:21:44;16.92;;;7.65;;
18316;SDS011;9284;52.298;21.164;2022-11-02T19:24:22;15.48;;;6.78;;
18316;SDS011;9284;52.298;21.164;2022-11-02T19:27:15;26.45;;;8.02;;
18316;SDS011;9284;52.298;21.164;2022-11-02T19:30:03;17.77;;;6.55;;
18316;SDS011;9284;52.298;21.164;2022-11-02T19:32:40;17.58;;;6.90;;
18316;SDS011;9284;52.298;21.164;2022-11-02T19:35:26;21.90;;;7.68;;
18316;SDS011;9284;52.298;21.164;2022-11-02T19:38:02;17.80;;;7.65;;
18316;SDS011;9284;52.298;21.164;2022-11-02T19:40:40;20.15;;;7.53;;
18316;SDS011;9284;52.298;21.164;2022-11-02T19:43:16;15.60;;;6.32;;
18316;SDS011;9284;52.298;21.164;2022-11-02T19:46:03;21.75;;;6.80;;
18316;SDS011;9284;52.298;21.164;2022-11-02T19:48:49;19.35;;;6.90;;
18316;SDS011;9284;52.298;21.164;2022-11-02T19:51:22;16.38;;;7.22;;
18316;SDS011;9284;52.298;21.164;2022-11-02T19:54:12;17.25;;;6.95;;
18316;SDS011;9284;52.298;21.164;2022-11-02T19:56:49;15.05;;;7.00;;
18316;SDS011;9284;52.298;21.164;2022-11-02T19:59:31;18.52;;;8.00;;
18316;SDS011;9284;52.298;21.164;2022-11-02T20:02:14;19.20;;;7.32;;
18316;SDS011;9284;52.298;21.164;2022-11-02T20:04:44;16.50;;;7.60;;
18316;SDS011;9284;52.298;21.164;2022-11-02T20:07:25;19.52;;;8.07;;
18316;SDS011;9284;52.298;21.164;2022-11-02T20:09:56;23.02;;;8.35;;
18316;SDS011;9284;52.298;21.164;2022-11-02T20:12:28;26.88;;;8.82;;
18316;SDS011;9284;52.298;21.164;2022-11-02T20:15:07;21.65;;;9.25;;
18316;SDS011;9284;52.298;21.164;2022-11-02T20:17:53;24.75;;;8.85;;